sensor_id;sensor_type;location;lat;lon;timestamp;P1;durP1;ratioP1;P2;durP2;ratioP2
63818;SDS011;49970;54.976;73.248;2023-04-15T00:00:53;5.38;;;3.45;;
63818;SDS011;49970;54.976;73.248;2023-04-15T00:03:19;4.35;;;3.50;;
63818;SDS011;49970;54.976;73.248;2023-04-15T00:05:46;3.63;;;3.25;;
63818;SDS011;49970;54.976;73.248;2023-04-15T00:08:12;12.60;;;3.65;;
63818;SDS011;49970;54.976;73.248;2023-04-15T00:10:40;4.18;;;3.78;;
63818;SDS011;49970;54.976;73.248;2023-04-15T00:13:08;17.52;;;3.83;;
63818;SDS011;49970;54.976;73.248;2023-04-15T00:15:35;3.33;;;3.03;;
63818;SDS011;49970;54.976;73.248;2023-04-15T00:18:02;50.88;;;5.15;;
63818;SDS011;49970;54.976;73.248;2023-04-15T00:20:28;5.78;;;3.38;;
63818;SDS011;49970;54.976;73.248;2023-04-15T00:22:55;3.45;;;3.15;;
63818;SDS011;49970;54.976;73.248;2023-04-15T00:25:21;2.60;;;2.40;;
63818;SDS011;49970;54.976;73.248;2023-04-15T00:27:48;6.82;;;3.78;;
63818;SDS011;49970;54.976;73.248;2023-04-15T00:30:14;3.63;;;3.33;;
63818;SDS011;49970;54.976;73.248;2023-04-15T00:32:41;5.03;;;3.60;;
63818;SDS011;49970;54.976;73.248;2023-04-15T00:35:08;11.18;;;3.38;;
63818;SDS011;49970;54.976;73.248;2023-04-15T00:37:34;3.17;;;2.97;;
63818;SDS011;49970;54.976;73.248;2023-04-15T00:40:01;7.78;;;3.20;;
63818;SDS011;49970;54.976;73.248;2023-04-15T00:42:30;3.40;;;3.10;;
63818;SDS011;49970;54.976;73.248;2023-04-15T00:44:57;4.80;;;3.75;;
63818;SDS011;49970;54.976;73.248;2023-04-15T00:47:23;4.85;;;3.20;;
63818;SDS011;49970;54.976;73.248;2023-04-15T00:49:51;4.68;;;3.55;;
63818;SDS011;49970;54.976;73.248;2023-04-15T00:52:18;7.57;;;3.80;;
63818;SDS011;49970;54.976;73.248;2023-04-15T00:54:44;4.03;;;3.47;;
63818;SDS011;49970;54.976;73.248;2023-04-15T00:57:20;3.08;;;2.92;;
63818;SDS011;49970;54.976;73.248;2023-04-15T00:59:53;6.97;;;3.38;;
63818;SDS011;49970;54.976;73.248;2023-04-15T01:02:21;6.80;;;3.38;;
63818;SDS011;49970;54.976;73.248;2023-04-15T01:04:52;9.73;;;3.35;;
63818;SDS011;49970;54.976;73.248;2023-04-15T01:07:18;10.23;;;3.60;;
63818;SDS011;49970;54.976;73.248;2023-04-15T01:09:49;6.35;;;3.75;;
63818;SDS011;49970;54.976;73.248;2023-04-15T01:12:16;4.15;;;3.30;;
63818;SDS011;49970;54.976;73.248;2023-04-15T01:14:42;4.05;;;3.20;;
63818;SDS011;49970;54.976;73.248;2023-04-15T01:17:09;14.02;;;3.38;;
63818;SDS011;49970;54.976;73.248;2023-04-15T01:19:35;5.88;;;3.95;;
63818;SDS011;49970;54.976;73.248;2023-04-15T01:22:06;3.55;;;3.35;;
63818;SDS011;49970;54.976;73.248;2023-04-15T01:24:33;3.63;;;3.20;;
63818;SDS011;49970;54.976;73.248;2023-04-15T01:27:01;7.55;;;2.45;;
63818;SDS011;49970;54.976;73.248;2023-04-15T01:29:29;4.13;;;3.05;;
63818;SDS011;49970;54.976;73.248;2023-04-15T01:31:57;3.00;;;2.60;;
63818;SDS011;49970;54.976;73.248;2023-04-15T01:34:25;3.67;;;2.58;;
63818;SDS011;49970;54.976;73.248;2023-04-15T01:36:53;4.60;;;3.58;;
63818;SDS011;49970;54.976;73.248;2023-04-15T01:39:20;7.78;;;2.85;;
63818;SDS011;49970;54.976;73.248;2023-04-15T01:41:47;3.40;;;2.47;;
63818;SDS011;49970;54.976;73.248;2023-04-15T01:44:15;6.00;;;2.40;;
63818;SDS011;49970;54.976;73.248;2023-04-15T01:46:41;4.60;;;3.42;;
63818;SDS011;49970;54.976;73.248;2023-04-15T01:49:07;5.10;;;3.35;;
63818;SDS011;49970;54.976;73.248;2023-04-15T01:51:33;3.17;;;2.97;;
63818;SDS011;49970;54.976;73.248;2023-04-15T01:54:00;6.97;;;3.75;;
63818;SDS011;49970;54.976;73.248;2023-04-15T01:56:36;5.88;;;3.15;;
63818;SDS011;49970;54.976;73.248;2023-04-15T01:59:03;8.07;;;3.45;;
63818;SDS011;49970;54.976;73.248;2023-04-15T02:01:29;5.50;;;3.00;;
63818;SDS011;49970;54.976;73.248;2023-04-15T02:03:58;8.15;;;3.40;;
63818;SDS011;49970;54.976;73.248;2023-04-15T02:06:25;13.73;;;3.28;;
63818;SDS011;49970;54.976;73.248;2023-04-15T02:08:54;5.40;;;3.42;;
63818;SDS011;49970;54.976;73.248;2023-04-15T02:11:20;5.38;;;3.47;;
63818;SDS011;49970;54.976;73.248;2023-04-15T02:13:47;3.50;;;2.95;;
63818;SDS011;49970;54.976;73.248;2023-04-15T02:16:14;4.43;;;3.67;;
63818;SDS011;49970;54.976;73.248;2023-04-15T02:18:43;4.30;;;2.92;;
63818;SDS011;49970;54.976;73.248;2023-04-15T02:21:11;6.25;;;3.40;;
63818;SDS011;49970;54.976;73.248;2023-04-15T02:23:43;3.70;;;3.38;;
63818;SDS011;49970;54.976;73.248;2023-04-15T02:26:12;3.67;;;2.67;;
63818;SDS011;49970;54.976;73.248;2023-04-15T02:28:38;3.50;;;3.20;;
63818;SDS011;49970;54.976;73.248;2023-04-15T02:31:05;11.82;;;3.42;;
63818;SDS011;49970;54.976;73.248;2023-04-15T02:33:42;3.53;;;3.22;;
63818;SDS011;49970;54.976;73.248;2023-04-15T02:36:08;4.22;;;3.30;;
63818;SDS011;49970;54.976;73.248;2023-04-15T02:38:37;7.22;;;4.05;;
63818;SDS011;49970;54.976;73.248;2023-04-15T02:41:07;17.45;;;3.97;;
63818;SDS011;49970;54.976;73.248;2023-04-15T02:43:36;12.73;;;3.45;;
63818;SDS011;49970;54.976;73.248;2023-04-15T02:46:04;4.80;;;3.08;;
63818;SDS011;49970;54.976;73.248;2023-04-15T02:48:31;3.50;;;3.20;;
63818;SDS011;49970;54.976;73.248;2023-04-15T02:51:14;10.52;;;3.13;;
63818;SDS011;49970;54.976;73.248;2023-04-15T02:53:43;7.15;;;3.83;;
63818;SDS011;49970;54.976;73.248;2023-04-15T02:56:09;9.13;;;3.95;;
63818;SDS011;49970;54.976;73.248;2023-04-15T02:58:36;4.10;;;3.63;;
63818;SDS011;49970;54.976;73.248;2023-04-15T03:01:12;12.35;;;3.13;;
63818;SDS011;49970;54.976;73.248;2023-04-15T03:03:49;3.08;;;2.83;;
63818;SDS011;49970;54.976;73.248;2023-04-15T03:06:25;6.03;;;2.85;;
63818;SDS011;49970;54.976;73.248;2023-04-15T03:08:52;2.53;;;1.83;;
63818;SDS011;49970;54.976;73.248;2023-04-15T03:11:19;5.82;;;2.50;;
63818;SDS011;49970;54.976;73.248;2023-04-15T03:13:46;4.30;;;2.78;;
63818;SDS011;49970;54.976;73.248;2023-04-15T03:16:24;14.90;;;3.30;;
63818;SDS011;49970;54.976;73.248;2023-04-15T03:18:55;8.57;;;3.15;;
63818;SDS011;49970;54.976;73.248;2023-04-15T03:21:22;8.40;;;3.17;;
63818;SDS011;49970;54.976;73.248;2023-04-15T03:23:49;8.90;;;3.58;;
63818;SDS011;49970;54.976;73.248;2023-04-15T03:26:24;2.75;;;2.55;;
63818;SDS011;49970;54.976;73.248;2023-04-15T03:29:02;5.57;;;2.95;;
63818;SDS011;49970;54.976;73.248;2023-04-15T03:31:28;3.83;;;2.38;;
63818;SDS011;49970;54.976;73.248;2023-04-15T03:33:54;12.32;;;3.65;;
63818;SDS011;49970;54.976;73.248;2023-04-15T03:36:30;20.85;;;4.70;;
63818;SDS011;49970;54.976;73.248;2023-04-15T03:39:00;16.42;;;6.70;;
63818;SDS011;49970;54.976;73.248;2023-04-15T03:41:29;5.28;;;3.53;;
63818;SDS011;49970;54.976;73.248;2023-04-15T03:44:02;13.52;;;6.82;;
63818;SDS011;49970;54.976;73.248;2023-04-15T03:46:31;11.20;;;7.07;;
63818;SDS011;49970;54.976;73.248;2023-04-15T03:49:05;33.58;;;16.15;;
63818;SDS011;49970;54.976;73.248;2023-04-15T03:51:32;9.75;;;5.75;;
63818;SDS011;49970;54.976;73.248;2023-04-15T03:54:08;17.88;;;9.35;;
63818;SDS011;49970;54.976;73.248;2023-04-15T03:56:34;5.10;;;3.00;;
63818;SDS011;49970;54.976;73.248;2023-04-15T03:59:06;5.03;;;4.53;;
63818;SDS011;49970;54.976;73.248;2023-04-15T04:01:37;20.10;;;10.60;;
63818;SDS011;49970;54.976;73.248;2023-04-15T04:04:03;8.23;;;4.88;;
63818;SDS011;49970;54.976;73.248;2023-04-15T04:06:29;4.63;;;3.25;;
63818;SDS011;49970;54.976;73.248;2023-04-15T04:08:56;7.07;;;2.90;;
63818;SDS011;49970;54.976;73.248;2023-04-15T04:11:22;6.78;;;3.25;;
63818;SDS011;49970;54.976;73.248;2023-04-15T04:13:58;7.60;;;2.45;;
63818;SDS011;49970;54.976;73.248;2023-04-15T04:16:25;8.55;;;2.97;;
63818;SDS011;49970;54.976;73.248;2023-04-15T04:18:51;13.30;;;2.42;;
63818;SDS011;49970;54.976;73.248;2023-04-15T04:21:17;3.17;;;2.58;;
63818;SDS011;49970;54.976;73.248;2023-04-15T04:23:44;10.77;;;3.30;;
63818;SDS011;49970;54.976;73.248;2023-04-15T04:26:10;4.13;;;3.72;;
63818;SDS011;49970;54.976;73.248;2023-04-15T04:28:37;4.80;;;3.35;;
63818;SDS011;49970;54.976;73.248;2023-04-15T04:31:05;6.80;;;2.95;;
63818;SDS011;49970;54.976;73.248;2023-04-15T04:33:32;3.70;;;2.58;;
63818;SDS011;49970;54.976;73.248;2023-04-15T04:35:58;4.45;;;2.28;;
63818;SDS011;49970;54.976;73.248;2023-04-15T04:38:25;2.17;;;2.00;;
63818;SDS011;49970;54.976;73.248;2023-04-15T04:40:51;2.67;;;2.38;;
63818;SDS011;49970;54.976;73.248;2023-04-15T04:43:17;4.78;;;3.03;;
63818;SDS011;49970;54.976;73.248;2023-04-15T04:45:43;8.93;;;2.90;;
63818;SDS011;49970;54.976;73.248;2023-04-15T04:48:09;7.35;;;4.10;;
63818;SDS011;49970;54.976;73.248;2023-04-15T04:50:36;11.00;;;4.07;;
63818;SDS011;49970;54.976;73.248;2023-04-15T04:53:02;2.53;;;2.33;;
63818;SDS011;49970;54.976;73.248;2023-04-15T04:55:28;6.30;;;2.58;;
63818;SDS011;49970;54.976;73.248;2023-04-15T04:57:54;7.53;;;2.33;;
63818;SDS011;49970;54.976;73.248;2023-04-15T05:00:21;7.60;;;1.63;;
63818;SDS011;49970;54.976;73.248;2023-04-15T05:02:47;15.27;;;2.13;;
63818;SDS011;49970;54.976;73.248;2023-04-15T05:05:13;2.42;;;2.25;;
63818;SDS011;49970;54.976;73.248;2023-04-15T05:07:39;3.50;;;2.13;;
63818;SDS011;49970;54.976;73.248;2023-04-15T05:10:06;10.05;;;1.83;;
63818;SDS011;49970;54.976;73.248;2023-04-15T05:12:33;5.72;;;1.88;;
63818;SDS011;49970;54.976;73.248;2023-04-15T05:15:02;5.38;;;2.22;;
63818;SDS011;49970;54.976;73.248;2023-04-15T05:17:28;4.32;;;2.50;;
63818;SDS011;49970;54.976;73.248;2023-04-15T05:19:56;4.03;;;2.60;;
63818;SDS011;49970;54.976;73.248;2023-04-15T05:22:27;2.78;;;1.92;;
63818;SDS011;49970;54.976;73.248;2023-04-15T05:24:53;5.03;;;2.00;;
63818;SDS011;49970;54.976;73.248;2023-04-15T05:27:20;5.63;;;1.98;;
63818;SDS011;49970;54.976;73.248;2023-04-15T05:29:57;7.05;;;1.92;;
63818;SDS011;49970;54.976;73.248;2023-04-15T05:32:23;9.50;;;2.25;;
63818;SDS011;49970;54.976;73.248;2023-04-15T05:34:50;8.77;;;1.77;;
63818;SDS011;49970;54.976;73.248;2023-04-15T05:37:16;17.55;;;2.13;;
63818;SDS011;49970;54.976;73.248;2023-04-15T05:39:55;1.52;;;1.40;;
63818;SDS011;49970;54.976;73.248;2023-04-15T05:42:21;6.63;;;1.85;;
63818;SDS011;49970;54.976;73.248;2023-04-15T05:44:48;20.63;;;2.20;;
63818;SDS011;49970;54.976;73.248;2023-04-15T05:47:14;3.47;;;1.65;;
63818;SDS011;49970;54.976;73.248;2023-04-15T05:49:40;1.50;;;1.40;;
63818;SDS011;49970;54.976;73.248;2023-04-15T05:52:06;3.13;;;1.65;;
63818;SDS011;49970;54.976;73.248;2023-04-15T05:54:32;1.75;;;1.65;;
63818;SDS011;49970;54.976;73.248;2023-04-15T05:56:59;10.13;;;2.95;;
63818;SDS011;49970;54.976;73.248;2023-04-15T05:59:25;2.60;;;1.92;;
63818;SDS011;49970;54.976;73.248;2023-04-15T06:01:58;9.00;;;1.60;;
63818;SDS011;49970;54.976;73.248;2023-04-15T06:04:24;2.33;;;1.90;;
63818;SDS011;49970;54.976;73.248;2023-04-15T06:06:50;6.72;;;3.25;;
63818;SDS011;49970;54.976;73.248;2023-04-15T06:09:16;3.25;;;2.30;;
63818;SDS011;49970;54.976;73.248;2023-04-15T06:11:53;5.82;;;1.73;;
63818;SDS011;49970;54.976;73.248;2023-04-15T06:14:29;11.35;;;2.65;;
63818;SDS011;49970;54.976;73.248;2023-04-15T06:16:56;5.53;;;2.25;;
63818;SDS011;49970;54.976;73.248;2023-04-15T06:19:22;2.60;;;2.25;;
63818;SDS011;49970;54.976;73.248;2023-04-15T06:21:49;1.70;;;1.60;;
63818;SDS011;49970;54.976;73.248;2023-04-15T06:24:16;6.03;;;1.67;;
63818;SDS011;49970;54.976;73.248;2023-04-15T06:26:42;12.80;;;2.10;;
63818;SDS011;49970;54.976;73.248;2023-04-15T06:29:08;3.08;;;1.88;;
63818;SDS011;49970;54.976;73.248;2023-04-15T06:31:40;3.28;;;1.42;;
63818;SDS011;49970;54.976;73.248;2023-04-15T06:34:06;2.50;;;1.75;;
63818;SDS011;49970;54.976;73.248;2023-04-15T06:36:32;4.45;;;1.45;;
63818;SDS011;49970;54.976;73.248;2023-04-15T06:38:58;3.15;;;1.30;;
63818;SDS011;49970;54.976;73.248;2023-04-15T06:41:25;4.38;;;1.27;;
63818;SDS011;49970;54.976;73.248;2023-04-15T06:43:52;6.47;;;1.90;;
63818;SDS011;49970;54.976;73.248;2023-04-15T06:46:18;3.88;;;2.03;;
63818;SDS011;49970;54.976;73.248;2023-04-15T06:48:54;9.88;;;1.73;;
63818;SDS011;49970;54.976;73.248;2023-04-15T06:51:21;4.18;;;1.92;;
63818;SDS011;49970;54.976;73.248;2023-04-15T06:53:53;3.78;;;1.85;;
63818;SDS011;49970;54.976;73.248;2023-04-15T06:56:19;12.05;;;1.75;;
63818;SDS011;49970;54.976;73.248;2023-04-15T06:58:46;3.47;;;1.73;;
63818;SDS011;49970;54.976;73.248;2023-04-15T07:01:12;6.88;;;1.85;;
63818;SDS011;49970;54.976;73.248;2023-04-15T07:03:39;4.90;;;1.52;;
63818;SDS011;49970;54.976;73.248;2023-04-15T07:06:06;2.90;;;1.88;;
63818;SDS011;49970;54.976;73.248;2023-04-15T07:08:34;3.83;;;2.15;;
63818;SDS011;49970;54.976;73.248;2023-04-15T07:11:00;10.00;;;1.58;;
63818;SDS011;49970;54.976;73.248;2023-04-15T07:13:26;7.38;;;1.80;;
63818;SDS011;49970;54.976;73.248;2023-04-15T07:15:56;6.97;;;1.90;;
63818;SDS011;49970;54.976;73.248;2023-04-15T07:18:22;7.60;;;2.03;;
63818;SDS011;49970;54.976;73.248;2023-04-15T07:20:48;1.77;;;1.67;;
63818;SDS011;49970;54.976;73.248;2023-04-15T07:23:15;6.43;;;1.63;;
63818;SDS011;49970;54.976;73.248;2023-04-15T07:25:41;6.30;;;1.58;;
63818;SDS011;49970;54.976;73.248;2023-04-15T07:28:07;1.20;;;1.10;;
63818;SDS011;49970;54.976;73.248;2023-04-15T07:30:33;2.40;;;1.55;;
63818;SDS011;49970;54.976;73.248;2023-04-15T07:33:00;4.20;;;1.50;;
63818;SDS011;49970;54.976;73.248;2023-04-15T07:35:27;2.33;;;1.75;;
63818;SDS011;49970;54.976;73.248;2023-04-15T07:37:54;11.68;;;1.50;;
63818;SDS011;49970;54.976;73.248;2023-04-15T07:40:20;4.30;;;1.73;;
63818;SDS011;49970;54.976;73.248;2023-04-15T07:44:11;13.48;;;1.83;;
63818;SDS011;49970;54.976;73.248;2023-04-15T07:46:37;7.15;;;1.60;;
63818;SDS011;49970;54.976;73.248;2023-04-15T07:49:04;11.43;;;1.92;;
63818;SDS011;49970;54.976;73.248;2023-04-15T07:51:30;4.55;;;1.67;;
63818;SDS011;49970;54.976;73.248;2023-04-15T07:53:56;3.95;;;2.22;;
63818;SDS011;49970;54.976;73.248;2023-04-15T07:56:23;3.88;;;1.38;;
63818;SDS011;49970;54.976;73.248;2023-04-15T07:58:50;2.85;;;1.75;;
63818;SDS011;49970;54.976;73.248;2023-04-15T08:01:17;3.47;;;1.85;;
63818;SDS011;49970;54.976;73.248;2023-04-15T08:03:53;7.00;;;1.73;;
63818;SDS011;49970;54.976;73.248;2023-04-15T08:06:19;2.40;;;1.90;;
63818;SDS011;49970;54.976;73.248;2023-04-15T08:08:50;1.90;;;1.60;;
63818;SDS011;49970;54.976;73.248;2023-04-15T08:11:17;1.45;;;1.20;;
63818;SDS011;49970;54.976;73.248;2023-04-15T08:13:43;16.77;;;2.05;;
63818;SDS011;49970;54.976;73.248;2023-04-15T08:16:22;2.17;;;1.85;;
63818;SDS011;49970;54.976;73.248;2023-04-15T08:18:50;1.88;;;1.50;;
63818;SDS011;49970;54.976;73.248;2023-04-15T08:21:27;1.98;;;1.48;;
63818;SDS011;49970;54.976;73.248;2023-04-15T08:23:55;1.92;;;1.45;;
63818;SDS011;49970;54.976;73.248;2023-04-15T08:26:21;1.95;;;1.80;;
63818;SDS011;49970;54.976;73.248;2023-04-15T08:28:48;2.88;;;1.75;;
63818;SDS011;49970;54.976;73.248;2023-04-15T08:31:15;1.83;;;1.67;;
63818;SDS011;49970;54.976;73.248;2023-04-15T08:33:53;4.55;;;1.70;;
63818;SDS011;49970;54.976;73.248;2023-04-15T08:36:21;5.38;;;1.95;;
63818;SDS011;49970;54.976;73.248;2023-04-15T08:38:47;1.80;;;1.35;;
63818;SDS011;49970;54.976;73.248;2023-04-15T08:41:20;1.77;;;1.20;;
63818;SDS011;49970;54.976;73.248;2023-04-15T08:43:52;2.13;;;1.48;;
63818;SDS011;49970;54.976;73.248;2023-04-15T08:46:23;4.00;;;1.70;;
63818;SDS011;49970;54.976;73.248;2023-04-15T08:49:00;6.75;;;1.58;;
63818;SDS011;49970;54.976;73.248;2023-04-15T08:51:39;7.88;;;1.63;;
63818;SDS011;49970;54.976;73.248;2023-04-15T08:54:06;8.13;;;1.50;;
63818;SDS011;49970;54.976;73.248;2023-04-15T08:56:35;11.90;;;1.50;;
63818;SDS011;49970;54.976;73.248;2023-04-15T08:59:02;2.65;;;1.73;;
63818;SDS011;49970;54.976;73.248;2023-04-15T09:01:29;1.48;;;1.33;;
63818;SDS011;49970;54.976;73.248;2023-04-15T09:05:20;2.65;;;1.65;;
63818;SDS011;49970;54.976;73.248;2023-04-15T09:09:36;1.88;;;1.70;;
63818;SDS011;49970;54.976;73.248;2023-04-15T09:13:27;5.13;;;1.83;;
63818;SDS011;49970;54.976;73.248;2023-04-15T09:17:18;4.45;;;1.45;;
63818;SDS011;49970;54.976;73.248;2023-04-15T09:21:36;11.32;;;2.10;;
63818;SDS011;49970;54.976;73.248;2023-04-15T09:25:28;5.43;;;1.60;;
63818;SDS011;49970;54.976;73.248;2023-04-15T09:29:19;4.30;;;2.80;;
63818;SDS011;49970;54.976;73.248;2023-04-15T09:33:08;4.15;;;1.75;;
63818;SDS011;49970;54.976;73.248;2023-04-15T09:37:33;2.67;;;1.55;;
63818;SDS011;49970;54.976;73.248;2023-04-15T09:41:17;6.43;;;4.18;;
63818;SDS011;49970;54.976;73.248;2023-04-15T09:45:10;5.15;;;2.50;;
63818;SDS011;49970;54.976;73.248;2023-04-15T09:53:15;5.63;;;1.83;;
63818;SDS011;49970;54.976;73.248;2023-04-15T09:57:34;2.03;;;1.50;;
63818;SDS011;49970;54.976;73.248;2023-04-15T10:02:19;3.88;;;1.27;;
63818;SDS011;49970;54.976;73.248;2023-04-15T10:06:10;3.13;;;1.40;;
63818;SDS011;49970;54.976;73.248;2023-04-15T10:10:01;10.75;;;1.40;;
63818;SDS011;49970;54.976;73.248;2023-04-15T10:13:50;1.98;;;1.27;;
63818;SDS011;49970;54.976;73.248;2023-04-15T10:18:06;3.67;;;2.00;;
63818;SDS011;49970;54.976;73.248;2023-04-15T10:21:57;6.80;;;1.38;;
63818;SDS011;49970;54.976;73.248;2023-04-15T10:25:48;3.70;;;1.30;;
63818;SDS011;49970;54.976;73.248;2023-04-15T10:29:37;2.92;;;1.60;;
63818;SDS011;49970;54.976;73.248;2023-04-15T10:33:53;19.02;;;1.60;;
63818;SDS011;49970;54.976;73.248;2023-04-15T10:37:44;4.47;;;1.33;;
63818;SDS011;49970;54.976;73.248;2023-04-15T10:41:45;9.98;;;1.27;;
63818;SDS011;49970;54.976;73.248;2023-04-15T10:45:36;10.38;;;1.45;;
63818;SDS011;49970;54.976;73.248;2023-04-15T10:49:30;3.30;;;2.00;;
63818;SDS011;49970;54.976;73.248;2023-04-15T10:53:27;2.85;;;1.70;;
63818;SDS011;49970;54.976;73.248;2023-04-15T11:05:50;10.30;;;2.53;;
63818;SDS011;49970;54.976;73.248;2023-04-15T11:09:40;7.05;;;2.38;;
63818;SDS011;49970;54.976;73.248;2023-04-15T11:13:30;5.10;;;1.50;;
63818;SDS011;49970;54.976;73.248;2023-04-15T11:21:33;2.28;;;2.08;;
63818;SDS011;49970;54.976;73.248;2023-04-15T11:25:24;2.67;;;1.60;;
63818;SDS011;49970;54.976;73.248;2023-04-15T11:29:40;1.73;;;1.63;;
63818;SDS011;49970;54.976;73.248;2023-04-15T11:33:31;2.88;;;1.67;;
63818;SDS011;49970;54.976;73.248;2023-04-15T11:37:28;9.68;;;2.08;;
63818;SDS011;49970;54.976;73.248;2023-04-15T11:41:21;5.40;;;2.90;;
63818;SDS011;49970;54.976;73.248;2023-04-15T11:45:13;5.90;;;3.05;;
63818;SDS011;49970;54.976;73.248;2023-04-15T11:48:42;8.52;;;3.75;;
63818;SDS011;49970;54.976;73.248;2023-04-15T11:51:11;9.30;;;4.18;;
63818;SDS011;49970;54.976;73.248;2023-04-15T11:53:45;12.57;;;4.93;;
63818;SDS011;49970;54.976;73.248;2023-04-15T11:56:18;9.75;;;4.18;;
63818;SDS011;49970;54.976;73.248;2023-04-15T11:58:46;10.95;;;5.35;;
63818;SDS011;49970;54.976;73.248;2023-04-15T12:01:15;12.32;;;7.05;;
63818;SDS011;49970;54.976;73.248;2023-04-15T12:03:42;16.27;;;7.22;;
63818;SDS011;49970;54.976;73.248;2023-04-15T12:06:18;12.55;;;7.97;;
63818;SDS011;49970;54.976;73.248;2023-04-15T12:08:51;12.00;;;7.07;;
63818;SDS011;49970;54.976;73.248;2023-04-15T12:13:58;13.90;;;8.18;;
63818;SDS011;49970;54.976;73.248;2023-04-15T12:16:48;16.58;;;9.13;;
63818;SDS011;49970;54.976;73.248;2023-04-15T12:19:22;21.67;;;9.27;;
63818;SDS011;49970;54.976;73.248;2023-04-15T12:21:55;12.73;;;7.82;;
63818;SDS011;49970;54.976;73.248;2023-04-15T12:24:24;16.23;;;8.48;;
63818;SDS011;49970;54.976;73.248;2023-04-15T12:26:54;22.23;;;8.73;;
63818;SDS011;49970;54.976;73.248;2023-04-15T12:29:26;15.60;;;8.95;;
63818;SDS011;49970;54.976;73.248;2023-04-15T12:34:29;18.23;;;8.88;;
63818;SDS011;49970;54.976;73.248;2023-04-15T12:36:58;19.25;;;8.50;;
63818;SDS011;49970;54.976;73.248;2023-04-15T12:39:29;16.52;;;8.38;;
63818;SDS011;49970;54.976;73.248;2023-04-15T12:41:57;19.10;;;8.70;;
63818;SDS011;49970;54.976;73.248;2023-04-15T12:44:24;14.20;;;8.05;;
63818;SDS011;49970;54.976;73.248;2023-04-15T12:46:56;31.05;;;8.70;;
63818;SDS011;49970;54.976;73.248;2023-04-15T12:49:23;20.83;;;9.32;;
63818;SDS011;49970;54.976;73.248;2023-04-15T12:51:50;20.63;;;9.52;;
63818;SDS011;49970;54.976;73.248;2023-04-15T12:54:18;21.90;;;9.00;;
63818;SDS011;49970;54.976;73.248;2023-04-15T12:56:49;14.95;;;8.45;;
63818;SDS011;49970;54.976;73.248;2023-04-15T12:59:16;41.20;;;7.43;;
63818;SDS011;49970;54.976;73.248;2023-04-15T13:01:43;20.55;;;5.95;;
63818;SDS011;49970;54.976;73.248;2023-04-15T13:04:10;43.80;;;23.63;;
63818;SDS011;49970;54.976;73.248;2023-04-15T13:06:36;25.95;;;10.73;;
63818;SDS011;49970;54.976;73.248;2023-04-15T13:09:03;16.83;;;6.22;;
63818;SDS011;49970;54.976;73.248;2023-04-15T13:11:32;11.68;;;4.65;;
63818;SDS011;49970;54.976;73.248;2023-04-15T13:14:05;19.20;;;3.78;;
63818;SDS011;49970;54.976;73.248;2023-04-15T13:16:33;14.43;;;3.40;;
63818;SDS011;49970;54.976;73.248;2023-04-15T13:19:08;4.60;;;2.83;;
63818;SDS011;49970;54.976;73.248;2023-04-15T13:21:35;12.43;;;2.47;;
63818;SDS011;49970;54.976;73.248;2023-04-15T13:24:01;4.88;;;2.70;;
63818;SDS011;49970;54.976;73.248;2023-04-15T13:26:28;6.25;;;3.10;;
63818;SDS011;49970;54.976;73.248;2023-04-15T13:28:55;12.50;;;4.07;;
63818;SDS011;49970;54.976;73.248;2023-04-15T13:31:22;12.75;;;5.90;;
63818;SDS011;49970;54.976;73.248;2023-04-15T13:33:48;17.83;;;5.32;;
63818;SDS011;49970;54.976;73.248;2023-04-15T13:36:19;27.58;;;6.40;;
63818;SDS011;49970;54.976;73.248;2023-04-15T13:38:50;16.20;;;5.22;;
63818;SDS011;49970;54.976;73.248;2023-04-15T13:41:16;23.50;;;6.38;;
63818;SDS011;49970;54.976;73.248;2023-04-15T13:43:42;27.02;;;4.78;;
63818;SDS011;49970;54.976;73.248;2023-04-15T13:46:09;14.77;;;4.93;;
63818;SDS011;49970;54.976;73.248;2023-04-15T13:48:46;22.40;;;4.20;;
63818;SDS011;49970;54.976;73.248;2023-04-15T13:51:12;14.55;;;4.00;;
63818;SDS011;49970;54.976;73.248;2023-04-15T13:53:38;25.00;;;4.65;;
63818;SDS011;49970;54.976;73.248;2023-04-15T13:56:08;14.63;;;4.80;;
63818;SDS011;49970;54.976;73.248;2023-04-15T13:58:40;7.63;;;2.83;;
63818;SDS011;49970;54.976;73.248;2023-04-15T14:01:06;11.43;;;2.80;;
63818;SDS011;49970;54.976;73.248;2023-04-15T14:03:35;13.80;;;3.53;;
63818;SDS011;49970;54.976;73.248;2023-04-15T14:06:01;7.18;;;3.38;;
63818;SDS011;49970;54.976;73.248;2023-04-15T14:08:28;17.75;;;4.90;;
63818;SDS011;49970;54.976;73.248;2023-04-15T14:10:54;13.27;;;5.30;;
63818;SDS011;49970;54.976;73.248;2023-04-15T14:13:22;13.35;;;4.82;;
63818;SDS011;49970;54.976;73.248;2023-04-15T14:15:48;10.18;;;4.25;;
63818;SDS011;49970;54.976;73.248;2023-04-15T14:18:14;11.45;;;4.10;;
63818;SDS011;49970;54.976;73.248;2023-04-15T14:20:40;8.45;;;5.32;;
63818;SDS011;49970;54.976;73.248;2023-04-15T14:23:12;24.85;;;5.78;;
63818;SDS011;49970;54.976;73.248;2023-04-15T14:25:48;20.52;;;11.68;;
63818;SDS011;49970;54.976;73.248;2023-04-15T14:28:16;18.63;;;10.85;;
63818;SDS011;49970;54.976;73.248;2023-04-15T14:30:42;20.80;;;9.05;;
63818;SDS011;49970;54.976;73.248;2023-04-15T14:33:13;17.80;;;8.52;;
63818;SDS011;49970;54.976;73.248;2023-04-15T14:35:40;22.27;;;9.05;;
63818;SDS011;49970;54.976;73.248;2023-04-15T14:38:07;36.13;;;9.27;;
63818;SDS011;49970;54.976;73.248;2023-04-15T14:40:35;26.08;;;6.82;;
63818;SDS011;49970;54.976;73.248;2023-04-15T14:43:02;14.02;;;7.15;;
63818;SDS011;49970;54.976;73.248;2023-04-15T14:45:28;19.25;;;6.05;;
63818;SDS011;49970;54.976;73.248;2023-04-15T14:47:55;16.05;;;8.18;;
63818;SDS011;49970;54.976;73.248;2023-04-15T14:50:32;23.75;;;11.20;;
63818;SDS011;49970;54.976;73.248;2023-04-15T14:52:59;32.38;;;10.65;;
63818;SDS011;49970;54.976;73.248;2023-04-15T14:55:25;35.72;;;19.65;;
63818;SDS011;49970;54.976;73.248;2023-04-15T14:57:52;42.63;;;16.80;;
63818;SDS011;49970;54.976;73.248;2023-04-15T15:00:18;29.08;;;10.95;;
63818;SDS011;49970;54.976;73.248;2023-04-15T15:02:44;20.83;;;12.48;;
63818;SDS011;49970;54.976;73.248;2023-04-15T15:05:12;23.90;;;9.68;;
63818;SDS011;49970;54.976;73.248;2023-04-15T15:07:38;33.65;;;9.65;;
63818;SDS011;49970;54.976;73.248;2023-04-15T15:11:29;18.70;;;10.82;;
63818;SDS011;49970;54.976;73.248;2023-04-15T15:15:21;38.35;;;11.93;;
63818;SDS011;49970;54.976;73.248;2023-04-15T15:19:12;52.85;;;13.00;;
63818;SDS011;49970;54.976;73.248;2023-04-15T15:23:03;54.47;;;17.23;;
63818;SDS011;49970;54.976;73.248;2023-04-15T15:26:11;29.73;;;11.10;;
63818;SDS011;49970;54.976;73.248;2023-04-15T15:30:02;26.27;;;8.55;;
63818;SDS011;49970;54.976;73.248;2023-04-15T15:33:53;26.15;;;8.75;;
63818;SDS011;49970;54.976;73.248;2023-04-15T15:37:44;33.65;;;11.48;;
63818;SDS011;49970;54.976;73.248;2023-04-15T15:41:34;29.38;;;10.65;;
63818;SDS011;49970;54.976;73.248;2023-04-15T15:44:01;36.55;;;12.60;;
63818;SDS011;49970;54.976;73.248;2023-04-15T15:46:28;41.17;;;13.65;;
63818;SDS011;49970;54.976;73.248;2023-04-15T15:49:01;34.55;;;11.30;;
63818;SDS011;49970;54.976;73.248;2023-04-15T15:51:28;36.75;;;11.95;;
63818;SDS011;49970;54.976;73.248;2023-04-15T15:53:54;50.78;;;11.50;;
63818;SDS011;49970;54.976;73.248;2023-04-15T15:56:26;29.15;;;11.02;;
63818;SDS011;49970;54.976;73.248;2023-04-15T16:03:08;31.00;;;10.27;;
63818;SDS011;49970;54.976;73.248;2023-04-15T16:05:45;51.50;;;11.85;;
63818;SDS011;49970;54.976;73.248;2023-04-15T16:08:17;20.92;;;10.43;;
63818;SDS011;49970;54.976;73.248;2023-04-15T16:10:54;26.83;;;9.90;;